Time;durP1;ratioP1;P1;durP2;ratioP2;P2;SDS_P1;SDS_P2;PMS_P1;PMS_P2;Temp;Humidity;BMP_temperature;BMP_pressure;BME280_temperature;BME280_humidity;BME280_pressure;Samples;Min_cycle;Max_cycle;Signal;HPM_P1;HPM_P2
2022/01/02 00:00:02;;;;;;;8.70;4.88;;;5.80;99.90;;;;;;5053490;28;20032;-82
2022/01/02 00:02:29;;;;;;;9.50;4.93;;;5.70;99.90;;;;;;5060716;28;20043;-82
2022/01/02 00:05:04;;;;;;;13.32;4.95;;;5.70;99.90;;;;;;5058216;28;20025;-82
2022/01/02 00:07:54;;;;;;;8.68;4.68;;;5.60;99.90;;;;;;5042027;28;20036;-82
2022/01/02 00:10:21;;;;;;;6.47;3.75;;;5.70;99.90;;;;;;5037406;28;20485;-81
2022/01/02 00:12:57;;;;;;;8.88;4.95;;;5.70;99.90;;;;;;5042318;28;20041;-82
2022/01/02 00:15:24;;;;;;;7.15;4.70;;;5.70;99.90;;;;;;5059126;28;20032;-82
2022/01/02 00:17:52;;;;;;;9.02;5.38;;;5.70;99.90;;;;;;5031058;28;20519;-82
2022/01/02 00:20:32;;;;;;;11.52;5.25;;;5.80;99.90;;;;;;5027756;28;20044;-82
2022/01/02 00:23:06;;;;;;;18.02;5.90;;;5.80;99.90;;;;;;5062756;28;20063;-82
2022/01/02 00:25:40;;;;;;;12.73;5.22;;;5.70;99.90;;;;;;5063118;28;20027;-82
2022/01/02 00:28:12;;;;;;;11.15;5.05;;;5.60;99.90;;;;;;5048585;28;20120;-82
2022/01/02 00:30:41;;;;;;;10.15;5.13;;;5.60;99.90;;;;;;5058794;28;20024;-82
2022/01/02 00:33:08;;;;;;;11.52;5.30;;;5.50;99.90;;;;;;5063882;28;20028;-82
2022/01/02 00:35:38;;;;;;;18.85;6.38;;;5.50;99.90;;;;;;5077973;28;20193;-82
2022/01/02 00:38:20;;;;;;;15.80;6.30;;;5.40;99.90;;;;;;5080530;28;20420;-82
2022/01/02 00:40:48;;;;;;;21.70;6.10;;;5.30;99.90;;;;;;5064248;28;20047;-81
2022/01/02 00:43:21;;;;;;;83.07;6.13;;;5.30;99.90;;;;;;5075408;28;20054;-80
2022/01/02 00:45:51;;;;;;;60.72;5.20;;;5.20;99.90;;;;;;5085152;28;20558;-81
2022/01/02 00:48:25;;;;;;;31.37;4.83;;;5.20;99.90;;;;;;5054373;28;20235;-81
2022/01/02 00:50:56;;;;;;;8.77;4.30;;;5.00;99.90;;;;;;5074670;28;20023;-81
2022/01/02 00:53:25;;;;;;;13.18;3.22;;;5.00;99.90;;;;;;5056785;28;20528;-81
2022/01/02 00:55:59;;;;;;;6.75;3.35;;;5.00;99.90;;;;;;5038362;28;20077;-81
2022/01/02 00:58:53;;;;;;;4.93;3.08;;;5.00;99.90;;;;;;5071778;28;20039;-81
2022/01/02 01:01:32;;;;;;;5.00;2.85;;;5.10;99.90;;;;;;5067013;28;20036;-81
2022/01/02 01:04:05;;;;;;;5.22;3.33;;;5.10;99.90;;;;;;5034548;28;20029;-81
2022/01/02 01:06:33;;;;;;;7.32;3.50;;;5.10;99.90;;;;;;5064652;28;20336;-81
2022/01/02 01:09:05;;;;;;;7.28;3.95;;;5.20;99.90;;;;;;5038839;28;20032;-82
2022/01/02 01:11:40;;;;;;;7.63;3.65;;;5.10;99.90;;;;;;5036662;28;20110;-81
2022/01/02 01:14:06;;;;;;;6.85;3.70;;;5.10;99.90;;;;;;5073891;28;20032;-81
2022/01/02 01:16:36;;;;;;;11.93;4.68;;;5.20;99.90;;;;;;5036122;28;20351;-81
2022/01/02 01:19:02;;;;;;;8.95;4.72;;;5.20;99.90;;;;;;5051220;28;20032;-81
2022/01/02 01:21:29;;;;;;;9.07;5.10;;;5.20;99.90;;;;;;5055761;28;20366;-81
2022/01/02 01:23:54;;;;;;;9.65;4.70;;;5.20;99.90;;;;;;5037784;28;20039;-81
2022/01/02 01:26:23;;;;;;;12.60;5.47;;;5.20;99.90;;;;;;5031599;28;20028;-81
2022/01/02 01:28:48;;;;;;;7.90;5.05;;;5.30;99.90;;;;;;5043053;28;20119;-81
2022/01/02 01:31:16;;;;;;;8.63;4.90;;;5.30;99.90;;;;;;5016270;28;20542;-81
2022/01/02 01:33:42;;;;;;;11.15;4.63;;;5.40;99.90;;;;;;5041290;28;20090;-81
2022/01/02 01:36:08;;;;;;;13.68;5.10;;;5.40;99.90;;;;;;5038392;28;20456;-82
2022/01/02 01:38:33;;;;;;;10.70;5.47;;;5.40;99.90;;;;;;5055846;28;20032;-82
2022/01/02 01:41:17;;;;;;;12.10;6.07;;;5.50;99.90;;;;;;5050223;28;20105;-81
2022/01/02 01:43:54;;;;;;;11.73;5.30;;;5.50;99.90;;;;;;5058930;28;20020;-81
2022/01/02 01:46:20;;;;;;;11.25;5.47;;;5.50;99.90;;;;;;5054711;28;20044;-81
2022/01/02 01:48:51;;;;;;;10.48;5.68;;;5.50;99.90;;;;;;5049753;28;20036;-82
2022/01/02 01:51:17;;;;;;;;;;;5.50;99.90;;;;;;5055173;28;20051;-82
2022/01/02 01:53:45;;;;;;;9.52;4.47;;;5.40;99.90;;;;;;5027087;28;20360;-81
2022/01/02 01:56:14;;;;;;;12.35;5.72;;;5.50;99.90;;;;;;5000910;28;20037;-82
2022/01/02 01:58:40;;;;;;;16.00;5.57;;;5.40;99.90;;;;;;5013706;28;20225;-82
2022/01/02 02:01:06;;;;;;;10.23;5.68;;;5.40;99.90;;;;;;5052043;28;20024;-82
2022/01/02 02:03:32;;;;;;;10.20;5.45;;;5.40;99.90;;;;;;5061135;28;20124;-82
2022/01/02 02:05:58;;;;;;;17.60;5.93;;;5.50;99.90;;;;;;5037107;28;20041;-82
2022/01/02 02:08:26;;;;;;;8.82;5.00;;;5.50;99.90;;;;;;5031670;28;20036;-82
2022/01/02 02:10:58;;;;;;;12.55;5.60;;;5.50;99.90;;;;;;5041102;28;20029;-81
2022/01/02 02:13:25;;;;;;;12.75;6.22;;;5.50;99.90;;;;;;5034845;28;20029;-81
2022/01/02 02:15:51;;;;;;;9.75;5.45;;;5.50;99.90;;;;;;5035056;28;20120;-81
2022/01/02 02:18:18;;;;;;;12.05;6.03;;;5.50;99.90;;;;;;5044512;28;20033;-81
2022/01/02 02:20:44;;;;;;;10.45;5.53;;;5.50;99.90;;;;;;5037286;28;20024;-82
2022/01/02 02:23:16;;;;;;;9.93;5.65;;;5.50;99.90;;;;;;5056875;28;20467;-81
2022/01/02 02:25:43;;;;;;;12.25;5.75;;;5.50;99.90;;;;;;5036553;28;20481;-81
2022/01/02 02:28:15;;;;;;;12.70;5.85;;;5.50;99.90;;;;;;5036085;28;20033;-81
2022/01/02 02:30:44;;;;;;;18.67;6.47;;;5.50;99.90;;;;;;5058976;28;20421;-82
2022/01/02 02:33:11;;;;;;;12.63;6.32;;;5.50;99.90;;;;;;5030716;28;20036;-82
2022/01/02 02:35:39;;;;;;;12.52;5.90;;;5.40;99.90;;;;;;5035822;28;20028;-82
2022/01/02 02:38:08;;;;;;;13.25;6.18;;;5.40;99.90;;;;;;5036792;28;20025;-81
2022/01/02 02:40:37;;;;;;;11.82;5.35;;;5.40;99.90;;;;;;5065097;28;20566;-82
2022/01/02 02:51:06;;;;;;;10.68;5.97;;;5.40;99.90;;;;;;5071219;28;20051;-81
2022/01/02 02:53:41;;;;;;;11.25;5.70;;;5.40;99.90;;;;;;5025331;28;20052;-81
2022/01/02 02:56:19;;;;;;;13.75;5.65;;;5.30;99.90;;;;;;5050108;28;20025;-81
2022/01/02 02:58:45;;;;;;;18.20;6.22;;;5.40;99.90;;;;;;5044456;28;20032;-81
2022/01/02 03:01:15;;;;;;;13.60;5.47;;;5.30;99.90;;;;;;5038827;28;20124;-81
2022/01/02 03:03:42;;;;;;;11.23;6.13;;;5.30;99.90;;;;;;5064766;28;20032;-81
2022/01/02 03:06:08;;;;;;;12.68;6.57;;;5.30;99.90;;;;;;5068065;28;20093;-82
2022/01/02 03:08:36;;;;;;;14.45;7.20;;;5.30;99.90;;;;;;5052710;28;20078;-82
2022/01/02 03:11:03;;;;;;;10.52;5.88;;;5.30;99.90;;;;;;5034831;28;20036;-81
2022/01/02 03:13:28;;;;;;;12.98;6.95;;;5.30;99.90;;;;;;5065897;28;20032;-82
2022/01/02 03:15:54;;;;;;;11.30;5.43;;;5.30;99.90;;;;;;5054797;28;20024;-82
2022/01/02 03:18:20;;;;;;;9.95;5.68;;;5.30;99.90;;;;;;5064163;28;20035;-81
2022/01/02 03:20:45;;;;;;;11.82;5.43;;;5.40;99.90;;;;;;5056315;28;20048;-82
2022/01/02 03:23:11;;;;;;;12.45;6.22;;;5.40;99.90;;;;;;5059671;28;20024;-82
2022/01/02 03:25:40;;;;;;;13.95;5.45;;;5.40;99.90;;;;;;5038069;28;20119;-82
2022/01/02 03:28:07;;;;;;;13.18;5.43;;;5.40;99.90;;;;;;5037182;28;20052;-82
2022/01/02 03:30:32;;;;;;;8.98;5.35;;;5.30;99.90;;;;;;5039451;28;20051;-82
2022/01/02 03:32:58;;;;;;;13.43;6.35;;;5.30;99.90;;;;;;5051737;28;20028;-82
2022/01/02 03:35:25;;;;;;;12.07;5.80;;;5.40;99.90;;;;;;5022205;28;20036;-82
2022/01/02 03:37:53;;;;;;;13.50;5.50;;;5.40;99.90;;;;;;5067658;28;20075;-82
2022/01/02 03:40:19;;;;;;;13.77;5.97;;;5.40;99.90;;;;;;5072140;28;20379;-82
2022/01/02 03:42:45;;;;;;;13.68;5.63;;;5.40;99.90;;;;;;5032433;28;20036;-82
2022/01/02 03:45:19;;;;;;;14.30;6.00;;;5.50;99.90;;;;;;5059972;28;20415;-82
2022/01/02 03:47:46;;;;;;;13.65;6.00;;;5.50;99.90;;;;;;5033696;28;20024;-82
2022/01/02 03:50:15;;;;;;;11.27;5.63;;;5.50;99.90;;;;;;5066236;28;20097;-82
2022/01/02 03:52:40;;;;;;;11.50;5.43;;;5.50;99.90;;;;;;5058020;28;20570;-82
2022/01/02 03:55:07;;;;;;;12.43;5.32;;;5.50;99.90;;;;;;5046155;28;20119;-82
2022/01/02 03:57:39;;;;;;;10.45;5.57;;;5.50;99.90;;;;;;5073148;28;20025;-82
2022/01/02 04:00:08;;;;;;;9.55;5.60;;;5.50;99.90;;;;;;5040572;28;20027;-82
2022/01/02 04:02:37;;;;;;;12.30;6.10;;;5.60;99.90;;;;;;5048588;28;20029;-82
2022/01/02 04:05:12;;;;;;;10.43;5.50;;;5.60;99.90;;;;;;5027496;28;20387;-82
2022/01/02 04:07:38;;;;;;;10.38;5.70;;;5.60;99.90;;;;;;5057042;28;20036;-82
2022/01/02 04:10:06;;;;;;;11.90;5.38;;;5.60;99.90;;;;;;5065638;28;20025;-82
2022/01/02 04:12:33;;;;;;;11.98;5.35;;;5.70;99.90;;;;;;5056882;28;20043;-82
2022/01/02 04:15:00;;;;;;;14.32;6.43;;;5.70;99.90;;;;;;5073510;28;20033;-81
2022/01/02 04:17:26;;;;;;;10.82;5.95;;;5.70;99.90;;;;;;5072954;28;20040;-82
2022/01/02 04:19:55;;;;;;;12.80;5.93;;;5.70;99.90;;;;;;5057822;28;20079;-81
2022/01/02 04:22:20;;;;;;;10.40;5.18;;;5.70;99.90;;;;;;5024045;28;20120;-81
2022/01/02 04:24:47;;;;;;;11.25;5.50;;;5.70;99.90;;;;;;5033770;28;20478;-82
2022/01/02 04:27:13;;;;;;;11.13;5.80;;;5.70;99.90;;;;;;5040043;28;20028;-82
2022/01/02 04:29:41;;;;;;;11.52;5.50;;;5.70;99.90;;;;;;5038322;28;20028;-82
2022/01/02 04:32:08;;;;;;;11.77;5.47;;;5.80;99.90;;;;;;5023299;28;20082;-81
2022/01/02 04:34:33;;;;;;;11.20;5.82;;;5.80;99.90;;;;;;5065650;28;20029;-82
2022/01/02 04:37:01;;;;;;;11.23;5.78;;;5.80;99.90;;;;;;5045141;28;20040;-82
2022/01/02 04:39:27;;;;;;;10.13;5.40;;;5.80;99.90;;;;;;5038154;28;20111;-82
2022/01/02 04:41:53;;;;;;;9.48;5.53;;;5.80;99.90;;;;;;5041867;28;20116;-81
2022/01/02 04:44:18;;;;;;;11.15;5.80;;;5.80;99.90;;;;;;5034815;28;20032;-81
2022/01/02 04:46:44;;;;;;;10.60;4.97;;;5.90;99.90;;;;;;5040059;28;20534;-81
2022/01/02 04:49:10;;;;;;;11.27;5.82;;;5.90;99.90;;;;;;5018877;28;20496;-81
2022/01/02 04:51:36;;;;;;;11.73;5.63;;;5.90;99.90;;;;;;5047437;28;20066;-81
2022/01/02 04:54:05;;;;;;;10.60;5.75;;;5.90;99.90;;;;;;5024824;28;20395;-81
2022/01/02 04:56:31;;;;;;;9.25;5.15;;;5.90;99.90;;;;;;5037752;28;20036;-81
2022/01/02 04:59:00;;;;;;;14.30;5.78;;;5.90;99.90;;;;;;5053201;28;20442;-81
2022/01/02 05:01:25;;;;;;;11.70;5.95;;;5.90;99.90;;;;;;5030986;28;20507;-81
2022/01/02 05:03:51;;;;;;;10.55;5.55;;;5.90;99.90;;;;;;5053514;28;20043;-81
2022/01/02 05:06:16;;;;;;;13.02;5.95;;;5.90;99.90;;;;;;5024180;28;20037;-82
2022/01/02 05:08:46;;;;;;;10.52;6.38;;;5.90;99.90;;;;;;5045775;28;20059;-81
2022/01/02 05:11:13;;;;;;;11.48;5.57;;;5.90;99.90;;;;;;5041220;28;20039;-81
2022/01/02 05:13:40;;;;;;;9.77;5.78;;;5.90;99.90;;;;;;5039008;28;20024;-81
2022/01/02 05:16:06;;;;;;;15.35;5.72;;;5.90;99.90;;;;;;5073264;28;20024;-81
2022/01/02 05:18:35;;;;;;;8.38;5.07;;;5.90;99.90;;;;;;5081394;28;20103;-82
2022/01/02 05:21:01;;;;;;;12.07;5.68;;;5.90;99.90;;;;;;5020761;28;20414;-81
2022/01/02 05:23:29;;;;;;;11.05;5.40;;;5.90;99.90;;;;;;5041798;28;20038;-81
2022/01/02 05:25:55;;;;;;;10.10;4.70;;;5.90;99.90;;;;;;5060494;28;20079;-81
2022/01/02 05:28:20;;;;;;;9.35;5.22;;;5.90;99.90;;;;;;5046771;28;20120;-82
2022/01/02 05:30:46;;;;;;;13.07;4.93;;;5.90;99.90;;;;;;5017419;28;20559;-81
2022/01/02 05:33:12;;;;;;;15.30;5.88;;;5.90;99.90;;;;;;5017208;28;20385;-81
2022/01/02 05:35:38;;;;;;;12.25;5.55;;;5.80;99.90;;;;;;5020233;28;20104;-82
2022/01/02 05:38:04;;;;;;;12.48;5.65;;;5.80;99.90;;;;;;5034830;28;20112;-81
2022/01/02 05:40:31;;;;;;;14.48;6.38;;;5.80;99.90;;;;;;5050557;28;20462;-81
2022/01/02 05:43:02;;;;;;;13.82;5.80;;;5.80;99.90;;;;;;5036999;28;20112;-81
2022/01/02 05:45:27;;;;;;;;;;;5.80;99.90;;;;;;5034085;28;20028;-81
2022/01/02 05:47:53;;;;;;;9.70;5.20;;;5.80;99.90;;;;;;5044350;28;19911;-81
2022/01/02 05:50:19;;;;;;;10.15;5.43;;;5.80;99.90;;;;;;5035795;28;20029;-81
2022/01/02 05:52:45;;;;;;;12.00;5.82;;;5.80;99.90;;;;;;5066427;28;20033;-81
2022/01/02 05:55:11;;;;;;;10.43;5.60;;;5.70;99.90;;;;;;5032433;28;20033;-81
2022/01/02 05:57:37;;;;;;;11.63;6.07;;;5.70;99.90;;;;;;5051702;28;20542;-81
2022/01/02 06:00:04;;;;;;;14.65;6.07;;;5.70;99.90;;;;;;5051496;28;20032;-81
2022/01/02 06:02:31;;;;;;;10.98;5.78;;;5.70;99.90;;;;;;5068407;28;20028;-81
2022/01/02 06:04:58;;;;;;;11.65;5.88;;;5.70;99.90;;;;;;5026130;28;20396;-81
2022/01/02 06:07:23;;;;;;;12.05;5.50;;;5.70;99.90;;;;;;5066726;28;20118;-81
2022/01/02 06:09:49;;;;;;;8.80;5.25;;;5.60;99.90;;;;;;5034289;28;20587;-81
2022/01/02 06:12:15;;;;;;;9.43;5.28;;;5.60;99.90;;;;;;5028189;28;20036;-81
2022/01/02 06:14:40;;;;;;;9.82;5.50;;;5.60;99.90;;;;;;5044066;28;20032;-81
2022/01/02 06:17:06;;;;;;;10.50;5.35;;;5.60;99.90;;;;;;5055902;28;20490;-81
2022/01/02 06:19:37;;;;;;;12.52;5.47;;;5.60;99.90;;;;;;5028898;28;20566;-81
2022/01/02 06:22:03;;;;;;;11.68;5.40;;;5.60;99.90;;;;;;5028594;28;20024;-81
2022/01/02 06:24:29;;;;;;;9.55;5.25;;;5.60;99.90;;;;;;5017790;28;20427;-81
2022/01/02 06:26:57;;;;;;;11.10;5.47;;;5.60;99.90;;;;;;5012513;28;20044;-81
2022/01/02 06:29:25;;;;;;;7.93;4.78;;;5.60;99.90;;;;;;5021046;28;20499;-81
2022/01/02 06:31:51;;;;;;;8.38;4.90;;;5.60;99.90;;;;;;5016483;28;20029;-81
2022/01/02 06:34:19;;;;;;;8.80;5.75;;;5.60;99.90;;;;;;5039976;28;20043;-81
2022/01/02 06:36:45;;;;;;;8.88;5.18;;;5.70;99.90;;;;;;5032711;28;20783;-81
2022/01/02 06:39:11;;;;;;;12.07;5.25;;;5.70;99.90;;;;;;5052815;28;20237;-81
2022/01/02 06:41:36;;;;;;;7.30;4.78;;;5.70;99.90;;;;;;5023823;28;20039;-81
2022/01/02 06:44:06;;;;;;;10.98;6.05;;;5.70;99.90;;;;;;5046630;28;20062;-81
2022/01/02 06:46:31;;;;;;;9.32;5.40;;;5.70;99.90;;;;;;5015536;28;20037;-82
2022/01/02 06:48:57;;;;;;;10.38;5.80;;;5.70;99.90;;;;;;5007584;28;20597;-81
2022/01/02 06:51:26;;;;;;;9.70;4.97;;;5.80;99.90;;;;;;5053688;28;20338;-81
2022/01/02 06:53:51;;;;;;;11.18;5.03;;;5.80;99.90;;;;;;5054569;28;20513;-81
2022/01/02 06:56:17;;;;;;;8.75;5.07;;;5.80;99.90;;;;;;5052467;28;20033;-81
2022/01/02 06:58:46;;;;;;;11.65;5.22;;;5.90;99.90;;;;;;5051435;28;20029;-82
2022/01/02 07:01:15;;;;;;;8.73;5.13;;;5.90;99.90;;;;;;5056615;28;20033;-82
2022/01/02 07:03:41;;;;;;;9.60;4.22;;;5.90;99.90;;;;;;5033069;28;20068;-82
2022/01/02 07:06:07;;;;;;;10.43;4.75;;;5.90;99.90;;;;;;5020703;28;20064;-82
2022/01/02 07:08:38;;;;;;;7.93;4.65;;;5.90;99.90;;;;;;5037654;28;20047;-82
2022/01/02 07:11:05;;;;;;;10.55;5.57;;;6.00;99.90;;;;;;5030630;28;20047;-82
2022/01/02 07:13:31;;;;;;;9.70;4.95;;;6.00;99.90;;;;;;5041135;28;20067;-82
2022/01/02 07:15:56;;;;;;;9.88;5.80;;;6.00;99.90;;;;;;5021316;28;20449;-82
2022/01/02 07:18:22;;;;;;;7.90;5.35;;;6.00;99.90;;;;;;5054514;28;20024;-80
2022/01/02 07:20:48;;;;;;;7.70;4.45;;;6.00;99.90;;;;;;5024006;28;20048;-81
2022/01/02 07:23:13;;;;;;;8.25;4.53;;;6.10;99.90;;;;;;5042212;28;20107;-81
2022/01/02 07:25:42;;;;;;;10.35;4.82;;;6.10;99.90;;;;;;5035606;28;20031;-80
2022/01/02 07:28:08;;;;;;;7.65;4.68;;;6.10;99.90;;;;;;5044974;28;20036;-81
2022/01/02 07:30:33;;;;;;;9.63;4.50;;;6.20;99.90;;;;;;5077446;28;20024;-81
2022/01/02 07:33:02;;;;;;;8.65;4.38;;;6.20;99.90;;;;;;5031132;28;20045;-81
2022/01/02 07:35:29;;;;;;;7.93;4.18;;;6.20;99.90;;;;;;5024499;28;20033;-81
2022/01/02 07:37:55;;;;;;;7.68;4.70;;;6.20;99.90;;;;;;5041822;28;20033;-81
2022/01/02 07:40:21;;;;;;;7.82;4.55;;;6.20;99.90;;;;;;5040728;28;20036;-81
2022/01/02 07:42:47;;;;;;;9.15;4.35;;;6.30;99.90;;;;;;5032236;28;20064;-81
2022/01/02 07:45:13;;;;;;;12.82;5.22;;;6.30;99.90;;;;;;5040881;28;20020;-82
2022/01/02 07:47:39;;;;;;;8.65;5.18;;;6.30;99.90;;;;;;5046660;28;20039;-81
2022/01/02 07:50:11;;;;;;;10.30;5.30;;;6.20;99.90;;;;;;5047629;28;20123;-80
2022/01/02 07:52:37;;;;;;;7.45;4.70;;;6.30;99.90;;;;;;5062339;28;20024;-80
2022/01/02 07:55:03;;;;;;;11.48;5.25;;;6.30;99.90;;;;;;5025819;28;20040;-81
2022/01/02 07:57:32;;;;;;;9.45;4.90;;;6.30;99.90;;;;;;5072896;28;20039;-81
2022/01/02 07:59:58;;;;;;;12.60;6.22;;;6.30;99.90;;;;;;5058273;28;20043;-82
2022/01/02 08:02:23;;;;;;;11.13;5.50;;;6.40;99.90;;;;;;5036898;28;20024;-81
2022/01/02 08:04:49;;;;;;;10.48;5.25;;;6.40;99.90;;;;;;5055163;28;20032;-82
2022/01/02 08:07:15;;;;;;;7.50;4.82;;;6.40;99.90;;;;;;5020782;28;20085;-82
2022/01/02 08:09:40;;;;;;;10.18;4.82;;;6.50;99.90;;;;;;5033832;28;20132;-82
2022/01/02 08:12:06;;;;;;;9.77;4.70;;;6.50;99.90;;;;;;5059138;28;20039;-81
2022/01/02 08:14:35;;;;;;;7.97;4.80;;;6.50;99.90;;;;;;5057665;28;20047;-81
2022/01/02 08:17:04;;;;;;;6.03;4.03;;;6.60;99.90;;;;;;5037516;28;20551;-81
2022/01/02 08:19:29;;;;;;;7.55;3.95;;;6.60;99.90;;;;;;5055195;28;20032;-82
2022/01/02 08:21:55;;;;;;;10.05;4.13;;;6.60;99.90;;;;;;5046818;28;20029;-81
2022/01/02 08:24:20;;;;;;;8.63;4.60;;;6.60;99.90;;;;;;5008660;28;20064;-81
2022/01/02 08:26:46;;;;;;;6.43;3.67;;;6.60;99.90;;;;;;5024668;28;20121;-81
2022/01/02 08:29:13;;;;;;;8.02;4.25;;;6.70;99.90;;;;;;5056599;28;20051;-81
2022/01/02 08:31:40;;;;;;;6.63;3.50;;;6.70;99.90;;;;;;5040193;28;20048;-81
2022/01/02 08:34:06;;;;;;;10.15;4.25;;;6.70;99.90;;;;;;5034063;28;20057;-81
2022/01/02 08:36:31;;;;;;;7.13;4.15;;;6.80;99.90;;;;;;5054710;28;20487;-81
2022/01/02 08:38:57;;;;;;;10.75;6.60;;;6.80;99.90;;;;;;5039300;28;20028;-81
2022/01/02 08:41:23;;;;;;;11.60;5.28;;;6.80;99.90;;;;;;5034455;28;20055;-81
2022/01/02 08:43:49;;;;;;;9.40;4.43;;;6.80;99.90;;;;;;5048459;28;20035;-82
2022/01/02 08:46:15;;;;;;;11.13;5.10;;;6.80;99.90;;;;;;5051167;28;20547;-85
2022/01/02 08:48:40;;;;;;;8.45;4.32;;;6.80;99.90;;;;;;5049816;28;20055;-80
2022/01/02 08:51:07;;;;;;;6.47;3.90;;;6.80;99.90;;;;;;5042704;28;20060;-81
2022/01/02 08:53:34;;;;;;;8.10;4.07;;;6.90;99.90;;;;;;5059488;28;20028;-81
2022/01/02 08:56:00;;;;;;;7.80;4.53;;;6.90;99.90;;;;;;5060427;28;20042;-82
2022/01/02 08:58:26;;;;;;;6.70;3.70;;;6.90;99.90;;;;;;5074854;28;20028;-82
2022/01/02 09:00:52;;;;;;;8.88;4.32;;;7.00;99.90;;;;;;5032958;28;20036;-80
2022/01/02 09:03:17;;;;;;;7.72;4.45;;;7.00;99.90;;;;;;5018525;28;20380;-81
2022/01/02 09:05:46;;;;;;;9.13;4.82;;;7.10;99.90;;;;;;5040430;28;20068;-80
2022/01/02 09:08:12;;;;;;;8.10;4.60;;;7.10;99.90;;;;;;5057696;28;20040;-81
2022/01/02 09:10:38;;;;;;;9.93;4.78;;;7.20;99.90;;;;;;5021077;28;20059;-81
2022/01/02 09:13:04;;;;;;;6.72;4.22;;;7.30;99.90;;;;;;5039575;28;20410;-82
2022/01/02 09:15:29;;;;;;;10.77;5.07;;;7.30;99.90;;;;;;5021542;28;20059;-80
2022/01/02 09:17:56;;;;;;;7.63;4.35;;;7.30;99.90;;;;;;5039101;28;20131;-83
2022/01/02 09:20:22;;;;;;;6.43;4.15;;;7.30;99.90;;;;;;5021299;28;20649;-81
2022/01/02 09:22:48;;;;;;;11.23;5.43;;;7.30;99.90;;;;;;5044653;28;20031;-81
2022/01/02 09:25:13;;;;;;;11.57;5.25;;;7.30;99.90;;;;;;5036078;28;20025;-81
2022/01/02 09:27:41;;;;;;;12.18;4.95;;;7.40;99.90;;;;;;5066164;28;20033;-82
2022/01/02 09:30:08;;;;;;;7.82;4.47;;;7.40;99.90;;;;;;5040723;28;20081;-83
2022/01/02 09:32:34;;;;;;;7.70;4.18;;;7.40;99.90;;;;;;5033291;28;20048;-81
2022/01/02 09:35:08;;;;;;;9.32;5.25;;;7.40;99.90;;;;;;5039519;28;20024;-81
2022/01/02 09:37:37;;;;;;;9.75;4.60;;;7.50;99.90;;;;;;5065156;28;20051;-82
2022/01/02 09:40:06;;;;;;;7.45;4.68;;;7.60;99.90;;;;;;5041201;28;20410;-82
2022/01/02 09:42:32;;;;;;;9.77;4.90;;;7.60;99.90;;;;;;5050909;28;20052;-81
2022/01/02 09:44:58;;;;;;;7.82;4.00;;;7.70;99.90;;;;;;5038274;28;20024;-82
2022/01/02 09:47:28;;;;;;;10.15;4.53;;;7.70;99.90;;;;;;5053574;28;20040;-81
2022/01/02 09:49:56;;;;;;;9.30;5.47;;;7.70;99.90;;;;;;5036378;28;20032;-82
2022/01/02 09:52:22;;;;;;;7.97;4.97;;;7.80;99.90;;;;;;5020578;28;20037;-82
2022/01/02 09:54:54;;;;;;;7.63;4.95;;;7.90;99.90;;;;;;5072275;28;20419;-85
2022/01/02 09:57:20;;;;;;;6.20;3.67;;;8.00;99.90;;;;;;5064580;28;20041;-85
2022/01/02 09:59:46;;;;;;;7.70;4.45;;;8.20;99.90;;;;;;5035403;28;20035;-85
2022/01/02 10:02:11;;;;;;;8.45;4.65;;;8.30;99.90;;;;;;5067430;28;20086;-85
2022/01/02 10:04:39;;;;;;;8.35;4.28;;;8.40;99.90;;;;;;5068140;28;20068;-85
2022/01/02 10:07:31;;;;;;;8.23;4.43;;;8.50;99.90;;;;;;5067192;28;20059;-85
2022/01/02 10:09:58;;;;;;;9.40;5.97;;;8.60;99.90;;;;;;5054143;28;20033;-85
2022/01/02 10:12:25;;;;;;;11.48;5.60;;;8.70;99.90;;;;;;5036138;28;20398;-85
2022/01/02 10:15:09;;;;;;;7.57;4.70;;;8.70;99.90;;;;;;5067240;28;20043;-86
2022/01/02 10:17:57;;;;;;;6.00;3.97;;;8.70;99.90;;;;;;5066494;28;20025;-86
2022/01/02 10:20:26;;;;;;;6.90;4.57;;;8.70;99.90;;;;;;5068094;28;20494;-85
2022/01/02 10:23:04;;;;;;;8.90;4.43;;;8.60;99.90;;;;;;5068141;28;20025;-85
2022/01/02 10:25:40;;;;;;;6.00;3.90;;;8.70;99.90;;;;;;5069238;28;20021;-85
2022/01/02 10:28:26;;;;;;;6.40;3.63;;;8.70;99.90;;;;;;5035029;28;20093;-85
2022/01/02 10:30:58;;;;;;;7.03;4.15;;;8.80;99.90;;;;;;5065851;28;20071;-85
2022/01/02 10:33:25;;;;;;;6.93;3.45;;;8.80;99.90;;;;;;5068299;28;20035;-85
2022/01/02 10:35:59;;;;;;;11.93;4.28;;;8.80;99.90;;;;;;5068280;28;20065;-84
2022/01/02 10:38:25;;;;;;;6.43;4.05;;;8.80;99.90;;;;;;5062785;28;20013;-84
2022/01/02 10:40:51;;;;;;;8.77;4.68;;;8.70;99.90;;;;;;5053215;28;20055;-84
2022/01/02 10:43:36;;;;;;;5.90;3.33;;;8.60;99.90;;;;;;5079292;28;20063;-83
2022/01/02 10:46:07;;;;;;;8.75;4.38;;;8.60;99.90;;;;;;5091310;28;20009;-83
2022/01/02 10:48:42;;;;;;;5.85;3.88;;;8.50;99.90;;;;;;5072604;28;20032;-83
2022/01/02 10:51:09;;;;;;;7.28;4.20;;;8.50;99.90;;;;;;5072573;28;20037;-83
2022/01/02 10:53:37;;;;;;;11.02;4.22;;;8.50;99.90;;;;;;5064696;28;20085;-83
2022/01/02 10:56:04;;;;;;;6.57;3.28;;;8.50;99.90;;;;;;5044019;28;20502;-83
2022/01/02 10:58:33;;;;;;;10.95;3.85;;;8.60;99.90;;;;;;5037896;28;20045;-83
2022/01/02 11:01:05;;;;;;;11.95;4.97;;;8.70;99.90;;;;;;5045182;28;20028;-83
2022/01/02 11:03:31;;;;;;;11.02;5.40;;;8.80;99.90;;;;;;5064206;28;20111;-84
2022/01/02 11:06:07;;;;;;;9.77;5.05;;;8.90;99.90;;;;;;5052939;28;20029;-85
2022/01/02 11:08:35;;;;;;;8.38;4.22;;;9.00;99.90;;;;;;5032828;28;20064;-85
2022/01/02 11:11:02;;;;;;;6.10;3.40;;;9.10;99.90;;;;;;5050866;28;20025;-85
2022/01/02 11:13:28;;;;;;;6.60;3.63;;;9.10;99.90;;;;;;5015571;28;20029;-84
2022/01/02 11:15:54;;;;;;;10.85;4.25;;;9.10;99.90;;;;;;5051341;28;20021;-85
2022/01/02 11:18:21;;;;;;;7.13;4.28;;;9.10;99.90;;;;;;5051272;28;20035;-85
2022/01/02 11:20:47;;;;;;;5.30;3.85;;;9.10;99.90;;;;;;5035597;28;20035;-84
2022/01/02 11:23:22;;;;;;;9.00;3.65;;;9.20;99.90;;;;;;5052638;28;20032;-85
2022/01/02 11:25:55;;;;;;;11.75;4.13;;;9.20;99.90;;;;;;5051839;28;20394;-85
2022/01/02 11:28:39;;;;;;;9.88;4.40;;;9.30;99.90;;;;;;5053009;28;20044;-85
2022/01/02 11:31:07;;;;;;;9.30;4.32;;;9.30;99.90;;;;;;5051284;28;20025;-84
2022/01/02 11:33:42;;;;;;;9.27;4.72;;;9.40;99.90;;;;;;5051589;28;20024;-84
2022/01/02 11:36:24;;;;;;;8.20;3.63;;;9.40;99.90;;;;;;5050726;28;20060;-85
2022/01/02 11:39:05;;;;;;;8.02;3.78;;;9.50;99.90;;;;;;5052933;28;20036;-86
2022/01/02 11:41:39;;;;;;;6.32;2.95;;;9.50;99.90;;;;;;5052502;28;20386;-85
2022/01/02 11:44:12;;;;;;;8.20;3.42;;;9.50;99.90;;;;;;5034183;28;20041;-85
2022/01/02 11:46:52;;;;;;;6.57;3.25;;;9.50;99.90;;;;;;5031497;28;20034;-85
2022/01/02 11:49:37;;;;;;;5.97;3.40;;;9.60;99.90;;;;;;5037355;28;20044;-85
2022/01/02 11:52:22;;;;;;;5.05;3.13;;;9.60;99.90;;;;;;5052485;28;20559;-85
2022/01/02 11:54:50;;;;;;;8.95;3.40;;;9.60;99.90;;;;;;5052361;28;20025;-84
2022/01/02 11:57:15;;;;;;;7.28;2.90;;;9.60;99.90;;;;;;5053042;28;20021;-84
2022/01/02 11:59:47;;;;;;;6.05;3.10;;;9.60;99.90;;;;;;5051807;28;20071;-85
2022/01/02 12:02:15;;;;;;;6.88;3.30;;;9.50;99.90;;;;;;5052595;28;20017;-84
2022/01/02 12:05:12;;;;;;;8.85;3.08;;;9.60;99.90;;;;;;5052341;28;20029;-84
2022/01/02 12:07:51;;;;;;;10.05;3.35;;;9.60;99.90;;;;;;5053659;28;20043;-84
2022/01/02 12:10:16;;;;;;;6.80;3.03;;;9.70;99.90;;;;;;5050761;28;20033;-83
2022/01/02 12:12:57;;;;;;;9.65;3.95;;;9.80;99.90;;;;;;5050496;28;20560;-84
2022/01/02 12:15:23;;;;;;;7.88;3.67;;;9.80;99.90;;;;;;5049938;28;20028;-84
2022/01/02 12:18:29;;;;;;;4.85;3.03;;;9.80;99.90;;;;;;5049935;28;20039;-84
2022/01/02 12:21:01;;;;;;;5.38;3.38;;;9.80;99.90;;;;;;5038053;28;20124;-83
2022/01/02 12:23:33;;;;;;;5.05;2.95;;;9.80;99.90;;;;;;5048819;28;20025;-84
2022/01/02 12:26:27;;;;;;;8.90;3.38;;;9.80;99.90;;;;;;5050593;28;20028;-84
2022/01/02 12:28:57;;;;;;;5.22;2.95;;;9.70;99.90;;;;;;5048637;28;20065;-84
2022/01/02 12:31:28;;;;;;;6.07;3.10;;;9.60;99.90;;;;;;5025760;28;20076;-85
2022/01/02 12:33:54;;;;;;;;;;;9.70;99.90;;;;;;5033640;28;20070;-84
2022/01/02 12:36:23;;;;;;;6.70;3.63;;;9.60;99.90;;;;;;5048995;28;19963;-85
2022/01/02 12:38:58;;;;;;;6.93;2.77;;;9.70;99.90;;;;;;5050077;28;20032;-84
2022/01/02 12:41:31;;;;;;;8.00;3.17;;;9.70;99.90;;;;;;5030901;28;20045;-84
2022/01/02 12:44:01;;;;;;;14.07;6.20;;;9.70;99.90;;;;;;5040984;28;20509;-84
2022/01/02 12:46:40;;;;;;;8.80;4.07;;;9.70;99.90;;;;;;5049265;28;20525;-84
2022/01/02 12:49:13;;;;;;;6.28;3.17;;;9.80;99.90;;;;;;5046755;28;20038;-83
2022/01/02 12:51:47;;;;;;;9.57;3.17;;;9.90;99.90;;;;;;5036284;28;20033;-84
2022/01/02 12:54:24;;;;;;;3.80;2.40;;;9.90;99.90;;;;;;5026165;28;20392;-84
2022/01/02 12:56:51;;;;;;;6.95;3.28;;;10.00;99.90;;;;;;5013970;28;20034;-84
2022/01/02 12:59:30;;;;;;;4.93;2.90;;;10.10;99.90;;;;;;5035520;28;20399;-85
2022/01/02 13:02:02;;;;;;;5.67;2.97;;;10.20;99.90;;;;;;5047374;28;20116;-84
2022/01/02 13:04:39;;;;;;;3.88;2.83;;;10.20;99.90;;;;;;5048169;28;20528;-85
2022/01/02 13:07:12;;;;;;;6.10;3.38;;;10.30;99.90;;;;;;5049024;28;20127;-85
2022/01/02 13:09:45;;;;;;;8.75;3.95;;;10.30;99.90;;;;;;5048840;28;20576;-84